sensor_id;sensor_type;location;lat;lon;timestamp;temperature;humidity
7814;DHT22;3952;48.364;16.022;2023-12-20T00:00:35;4.90;99.90
7814;DHT22;3952;48.364;16.022;2023-12-20T00:03:03;4.80;99.90
7814;DHT22;3952;48.364;16.022;2023-12-20T00:05:31;4.70;99.90
7814;DHT22;3952;48.364;16.022;2023-12-20T00:08:00;4.70;99.90
7814;DHT22;3952;48.364;16.022;2023-12-20T00:10:28;4.60;99.90
7814;DHT22;3952;48.364;16.022;2023-12-20T00:12:55;4.60;99.90
7814;DHT22;3952;48.364;16.022;2023-12-20T00:15:22;4.60;99.90
7814;DHT22;3952;48.364;16.022;2023-12-20T00:17:50;4.70;99.90
7814;DHT22;3952;48.364;16.022;2023-12-20T00:20:17;4.80;99.90
7814;DHT22;3952;48.364;16.022;2023-12-20T00:22:44;4.90;99.90
7814;DHT22;3952;48.364;16.022;2023-12-20T00:25:13;5.00;99.90
7814;DHT22;3952;48.364;16.022;2023-12-20T00:27:40;5.00;99.90
7814;DHT22;3952;48.364;16.022;2023-12-20T00:30:09;5.00;99.90
7814;DHT22;3952;48.364;16.022;2023-12-20T00:32:36;5.00;99.90
7814;DHT22;3952;48.364;16.022;2023-12-20T00:35:05;5.00;99.90
7814;DHT22;3952;48.364;16.022;2023-12-20T00:37:32;4.90;99.90
7814;DHT22;3952;48.364;16.022;2023-12-20T00:39:59;4.90;99.90
7814;DHT22;3952;48.364;16.022;2023-12-20T00:42:28;4.90;99.90
7814;DHT22;3952;48.364;16.022;2023-12-20T00:44:55;4.90;99.90
7814;DHT22;3952;48.364;16.022;2023-12-20T00:47:22;4.80;99.90
7814;DHT22;3952;48.364;16.022;2023-12-20T00:49:49;4.80;99.90
7814;DHT22;3952;48.364;16.022;2023-12-20T00:52:17;4.80;99.90
7814;DHT22;3952;48.364;16.022;2023-12-20T00:54:45;4.80;99.90
7814;DHT22;3952;48.364;16.022;2023-12-20T00:57:12;4.80;99.90
7814;DHT22;3952;48.364;16.022;2023-12-20T00:59:41;4.90;99.90
7814;DHT22;3952;48.364;16.022;2023-12-20T01:02:08;4.90;99.90
7814;DHT22;3952;48.364;16.022;2023-12-20T01:04:36;5.00;99.90
7814;DHT22;3952;48.364;16.022;2023-12-20T01:07:03;5.00;99.90
7814;DHT22;3952;48.364;16.022;2023-12-20T01:09:31;4.90;99.90
7814;DHT22;3952;48.364;16.022;2023-12-20T01:11:58;4.90;99.90
7814;DHT22;3952;48.364;16.022;2023-12-20T01:14:25;4.90;99.90
7814;DHT22;3952;48.364;16.022;2023-12-20T01:16:54;5.00;99.90
7814;DHT22;3952;48.364;16.022;2023-12-20T01:19:21;5.20;99.90
7814;DHT22;3952;48.364;16.022;2023-12-20T01:21:49;5.40;99.90
7814;DHT22;3952;48.364;16.022;2023-12-20T01:24:17;5.50;99.90
7814;DHT22;3952;48.364;16.022;2023-12-20T01:26:44;5.60;99.90
7814;DHT22;3952;48.364;16.022;2023-12-20T01:29:11;5.60;99.90
7814;DHT22;3952;48.364;16.022;2023-12-20T01:31:40;5.70;99.90
7814;DHT22;3952;48.364;16.022;2023-12-20T01:34:08;5.70;99.90
7814;DHT22;3952;48.364;16.022;2023-12-20T01:36:36;5.70;99.90
7814;DHT22;3952;48.364;16.022;2023-12-20T01:39:02;5.80;99.90
7814;DHT22;3952;48.364;16.022;2023-12-20T01:41:30;5.80;99.90
7814;DHT22;3952;48.364;16.022;2023-12-20T01:43:57;5.80;99.90
7814;DHT22;3952;48.364;16.022;2023-12-20T01:46:24;5.80;99.90
7814;DHT22;3952;48.364;16.022;2023-12-20T01:48:52;5.90;99.90
7814;DHT22;3952;48.364;16.022;2023-12-20T01:51:21;5.90;99.90
7814;DHT22;3952;48.364;16.022;2023-12-20T01:53:49;6.10;99.90
7814;DHT22;3952;48.364;16.022;2023-12-20T01:56:17;6.30;99.90
7814;DHT22;3952;48.364;16.022;2023-12-20T01:58:45;6.40;99.90
7814;DHT22;3952;48.364;16.022;2023-12-20T02:01:13;6.50;99.90
7814;DHT22;3952;48.364;16.022;2023-12-20T02:03:41;6.60;99.90
7814;DHT22;3952;48.364;16.022;2023-12-20T02:06:09;6.60;99.90
7814;DHT22;3952;48.364;16.022;2023-12-20T02:08:38;6.70;99.90
7814;DHT22;3952;48.364;16.022;2023-12-20T02:11:05;6.70;99.90
7814;DHT22;3952;48.364;16.022;2023-12-20T02:13:33;6.70;99.90
7814;DHT22;3952;48.364;16.022;2023-12-20T02:16:01;6.70;99.90
7814;DHT22;3952;48.364;16.022;2023-12-20T02:18:28;6.70;99.90
7814;DHT22;3952;48.364;16.022;2023-12-20T02:20:55;6.70;99.90
7814;DHT22;3952;48.364;16.022;2023-12-20T02:23:24;6.70;99.90
7814;DHT22;3952;48.364;16.022;2023-12-20T02:25:51;6.60;99.90
7814;DHT22;3952;48.364;16.022;2023-12-20T02:28:20;6.60;99.90
7814;DHT22;3952;48.364;16.022;2023-12-20T02:30:49;6.60;99.90
7814;DHT22;3952;48.364;16.022;2023-12-20T02:33:16;6.50;99.90
7814;DHT22;3952;48.364;16.022;2023-12-20T02:35:44;6.50;99.90
7814;DHT22;3952;48.364;16.022;2023-12-20T02:38:11;6.50;99.90
7814;DHT22;3952;48.364;16.022;2023-12-20T02:40:40;6.40;99.90
7814;DHT22;3952;48.364;16.022;2023-12-20T02:43:07;6.40;99.90
7814;DHT22;3952;48.364;16.022;2023-12-20T02:45:34;6.40;99.90
7814;DHT22;3952;48.364;16.022;2023-12-20T02:48:02;6.40;99.90
7814;DHT22;3952;48.364;16.022;2023-12-20T02:50:29;6.30;99.90
7814;DHT22;3952;48.364;16.022;2023-12-20T02:52:56;6.30;99.90
7814;DHT22;3952;48.364;16.022;2023-12-20T02:55:24;6.30;99.90
7814;DHT22;3952;48.364;16.022;2023-12-20T02:57:52;6.30;99.90
7814;DHT22;3952;48.364;16.022;2023-12-20T03:00:20;6.20;99.90
7814;DHT22;3952;48.364;16.022;2023-12-20T03:02:47;6.20;99.90
7814;DHT22;3952;48.364;16.022;2023-12-20T03:05:14;6.20;99.90
7814;DHT22;3952;48.364;16.022;2023-12-20T03:07:41;6.30;99.90
7814;DHT22;3952;48.364;16.022;2023-12-20T03:10:09;6.30;99.90
7814;DHT22;3952;48.364;16.022;2023-12-20T03:12:37;6.40;99.90
7814;DHT22;3952;48.364;16.022;2023-12-20T03:15:06;6.30;99.90
7814;DHT22;3952;48.364;16.022;2023-12-20T03:17:34;6.30;99.90
7814;DHT22;3952;48.364;16.022;2023-12-20T03:20:01;6.30;99.90
7814;DHT22;3952;48.364;16.022;2023-12-20T03:22:28;6.30;99.90
7814;DHT22;3952;48.364;16.022;2023-12-20T03:24:56;6.40;99.90
7814;DHT22;3952;48.364;16.022;2023-12-20T03:27:23;6.30;99.90
7814;DHT22;3952;48.364;16.022;2023-12-20T03:29:50;6.30;99.90
7814;DHT22;3952;48.364;16.022;2023-12-20T03:32:19;6.40;99.90
7814;DHT22;3952;48.364;16.022;2023-12-20T03:34:46;6.30;99.90
7814;DHT22;3952;48.364;16.022;2023-12-20T03:37:14;6.40;99.90
7814;DHT22;3952;48.364;16.022;2023-12-20T03:39:41;6.40;99.90
7814;DHT22;3952;48.364;16.022;2023-12-20T03:42:08;6.40;99.90
7814;DHT22;3952;48.364;16.022;2023-12-20T03:44:38;6.50;99.90
7814;DHT22;3952;48.364;16.022;2023-12-20T03:47:06;6.60;99.90
7814;DHT22;3952;48.364;16.022;2023-12-20T03:49:34;6.70;99.90
7814;DHT22;3952;48.364;16.022;2023-12-20T03:52:03;6.80;99.90
7814;DHT22;3952;48.364;16.022;2023-12-20T03:54:30;6.90;99.90
7814;DHT22;3952;48.364;16.022;2023-12-20T03:56:58;6.90;99.90
7814;DHT22;3952;48.364;16.022;2023-12-20T03:59:25;7.00;99.90
7814;DHT22;3952;48.364;16.022;2023-12-20T04:01:52;7.10;99.90
7814;DHT22;3952;48.364;16.022;2023-12-20T04:04:20;7.20;99.90
7814;DHT22;3952;48.364;16.022;2023-12-20T04:06:48;7.30;99.90
7814;DHT22;3952;48.364;16.022;2023-12-20T04:09:15;7.30;99.90
7814;DHT22;3952;48.364;16.022;2023-12-20T04:11:43;7.30;99.90
7814;DHT22;3952;48.364;16.022;2023-12-20T04:14:10;7.40;99.90
7814;DHT22;3952;48.364;16.022;2023-12-20T04:16:38;7.50;99.90
7814;DHT22;3952;48.364;16.022;2023-12-20T04:19:05;7.50;99.90
7814;DHT22;3952;48.364;16.022;2023-12-20T04:21:33;7.60;99.90
7814;DHT22;3952;48.364;16.022;2023-12-20T04:24:01;7.70;99.90
7814;DHT22;3952;48.364;16.022;2023-12-20T04:26:29;7.70;99.90
7814;DHT22;3952;48.364;16.022;2023-12-20T04:28:56;7.70;99.90
7814;DHT22;3952;48.364;16.022;2023-12-20T04:31:23;7.60;99.90
7814;DHT22;3952;48.364;16.022;2023-12-20T04:33:50;7.60;99.90
7814;DHT22;3952;48.364;16.022;2023-12-20T04:36:18;7.60;99.90
7814;DHT22;3952;48.364;16.022;2023-12-20T04:38:45;7.50;99.90
7814;DHT22;3952;48.364;16.022;2023-12-20T04:41:14;7.50;99.90
7814;DHT22;3952;48.364;16.022;2023-12-20T04:43:42;7.40;99.90
7814;DHT22;3952;48.364;16.022;2023-12-20T04:46:09;7.30;99.90
7814;DHT22;3952;48.364;16.022;2023-12-20T04:48:37;7.20;99.90
7814;DHT22;3952;48.364;16.022;2023-12-20T04:51:04;7.20;99.90
7814;DHT22;3952;48.364;16.022;2023-12-20T04:53:32;7.10;99.90
7814;DHT22;3952;48.364;16.022;2023-12-20T04:55:59;7.00;99.90
7814;DHT22;3952;48.364;16.022;2023-12-20T04:58:28;6.90;99.90
7814;DHT22;3952;48.364;16.022;2023-12-20T05:00:55;6.90;99.90
7814;DHT22;3952;48.364;16.022;2023-12-20T05:03:22;6.90;99.90
7814;DHT22;3952;48.364;16.022;2023-12-20T05:05:50;6.90;99.90
7814;DHT22;3952;48.364;16.022;2023-12-20T05:08:17;6.90;99.90
7814;DHT22;3952;48.364;16.022;2023-12-20T05:10:44;6.80;99.90
7814;DHT22;3952;48.364;16.022;2023-12-20T05:13:12;6.80;99.90
7814;DHT22;3952;48.364;16.022;2023-12-20T05:15:40;6.70;99.90
7814;DHT22;3952;48.364;16.022;2023-12-20T05:18:08;5.90;99.90
7814;DHT22;3952;48.364;16.022;2023-12-20T05:20:35;6.70;99.90
7814;DHT22;3952;48.364;16.022;2023-12-20T05:23:03;6.60;99.90
7814;DHT22;3952;48.364;16.022;2023-12-20T05:25:30;6.60;99.90
7814;DHT22;3952;48.364;16.022;2023-12-20T05:27:58;6.60;99.90
7814;DHT22;3952;48.364;16.022;2023-12-20T05:30:25;6.70;99.90
7814;DHT22;3952;48.364;16.022;2023-12-20T05:32:53;6.80;99.90
7814;DHT22;3952;48.364;16.022;2023-12-20T05:35:21;6.80;99.90
7814;DHT22;3952;48.364;16.022;2023-12-20T05:37:49;6.80;99.90
7814;DHT22;3952;48.364;16.022;2023-12-20T05:40:16;6.80;99.90
7814;DHT22;3952;48.364;16.022;2023-12-20T05:42:44;6.80;99.90
7814;DHT22;3952;48.364;16.022;2023-12-20T05:45:11;6.90;99.90
7814;DHT22;3952;48.364;16.022;2023-12-20T05:47:38;7.00;99.90
7814;DHT22;3952;48.364;16.022;2023-12-20T05:50:07;7.00;99.90
7814;DHT22;3952;48.364;16.022;2023-12-20T05:52:35;7.10;99.90
7814;DHT22;3952;48.364;16.022;2023-12-20T05:55:02;7.10;99.90
7814;DHT22;3952;48.364;16.022;2023-12-20T05:57:30;7.10;99.90
7814;DHT22;3952;48.364;16.022;2023-12-20T05:59:57;7.10;99.90
7814;DHT22;3952;48.364;16.022;2023-12-20T06:02:24;7.10;99.90
7814;DHT22;3952;48.364;16.022;2023-12-20T06:04:51;7.10;99.90
7814;DHT22;3952;48.364;16.022;2023-12-20T06:07:20;7.10;99.90
7814;DHT22;3952;48.364;16.022;2023-12-20T06:09:47;7.00;99.90
7814;DHT22;3952;48.364;16.022;2023-12-20T06:12:15;7.00;99.90
7814;DHT22;3952;48.364;16.022;2023-12-20T06:14:42;6.90;99.90
7814;DHT22;3952;48.364;16.022;2023-12-20T06:17:09;6.90;99.90
7814;DHT22;3952;48.364;16.022;2023-12-20T06:19:37;6.80;99.90
7814;DHT22;3952;48.364;16.022;2023-12-20T06:22:04;6.70;99.90
7814;DHT22;3952;48.364;16.022;2023-12-20T06:24:33;6.70;99.90
7814;DHT22;3952;48.364;16.022;2023-12-20T06:27:00;6.70;99.90
7814;DHT22;3952;48.364;16.022;2023-12-20T06:29:28;6.70;99.90
7814;DHT22;3952;48.364;16.022;2023-12-20T06:31:56;6.70;99.90
7814;DHT22;3952;48.364;16.022;2023-12-20T06:34:24;6.70;99.90
7814;DHT22;3952;48.364;16.022;2023-12-20T06:36:51;6.70;99.90
7814;DHT22;3952;48.364;16.022;2023-12-20T06:39:18;6.70;99.90
7814;DHT22;3952;48.364;16.022;2023-12-20T06:41:47;6.70;99.90
7814;DHT22;3952;48.364;16.022;2023-12-20T06:44:14;6.80;99.90
7814;DHT22;3952;48.364;16.022;2023-12-20T06:46:41;6.90;99.90
7814;DHT22;3952;48.364;16.022;2023-12-20T06:49:09;7.00;99.90
7814;DHT22;3952;48.364;16.022;2023-12-20T06:51:36;7.10;99.90
7814;DHT22;3952;48.364;16.022;2023-12-20T06:54:03;7.10;99.90
7814;DHT22;3952;48.364;16.022;2023-12-20T06:56:31;7.20;99.90
7814;DHT22;3952;48.364;16.022;2023-12-20T06:58:59;7.40;99.90
7814;DHT22;3952;48.364;16.022;2023-12-20T07:01:27;7.50;99.90
7814;DHT22;3952;48.364;16.022;2023-12-20T07:03:54;7.50;99.90
7814;DHT22;3952;48.364;16.022;2023-12-20T07:06:21;7.50;99.90
7814;DHT22;3952;48.364;16.022;2023-12-20T07:08:48;7.50;99.90
7814;DHT22;3952;48.364;16.022;2023-12-20T07:11:16;6.90;99.90
7814;DHT22;3952;48.364;16.022;2023-12-20T07:13:43;7.30;99.90
7814;DHT22;3952;48.364;16.022;2023-12-20T07:16:12;7.10;99.90
7814;DHT22;3952;48.364;16.022;2023-12-20T07:18:39;6.90;99.90
7814;DHT22;3952;48.364;16.022;2023-12-20T07:21:07;6.80;99.90
7814;DHT22;3952;48.364;16.022;2023-12-20T07:23:34;6.60;99.90
7814;DHT22;3952;48.364;16.022;2023-12-20T07:26:02;6.60;99.90
7814;DHT22;3952;48.364;16.022;2023-12-20T07:28:30;6.50;99.90
7814;DHT22;3952;48.364;16.022;2023-12-20T07:30:57;6.50;99.90
7814;DHT22;3952;48.364;16.022;2023-12-20T07:33:26;6.50;99.90
7814;DHT22;3952;48.364;16.022;2023-12-20T07:35:53;6.50;99.90
7814;DHT22;3952;48.364;16.022;2023-12-20T07:38:20;6.50;99.90
7814;DHT22;3952;48.364;16.022;2023-12-20T07:40:47;6.50;99.90
7814;DHT22;3952;48.364;16.022;2023-12-20T07:43:15;6.60;99.90
7814;DHT22;3952;48.364;16.022;2023-12-20T07:45:42;6.60;99.90
7814;DHT22;3952;48.364;16.022;2023-12-20T07:48:09;6.60;99.90
7814;DHT22;3952;48.364;16.022;2023-12-20T07:50:38;6.70;99.90
7814;DHT22;3952;48.364;16.022;2023-12-20T07:53:05;6.70;99.90
7814;DHT22;3952;48.364;16.022;2023-12-20T07:55:32;6.70;99.90
7814;DHT22;3952;48.364;16.022;2023-12-20T07:58:00;6.80;99.90
7814;DHT22;3952;48.364;16.022;2023-12-20T08:00:28;6.80;99.90
7814;DHT22;3952;48.364;16.022;2023-12-20T08:02:55;6.90;99.90
7814;DHT22;3952;48.364;16.022;2023-12-20T08:05:23;6.90;99.90
7814;DHT22;3952;48.364;16.022;2023-12-20T08:07:51;7.00;99.90
7814;DHT22;3952;48.364;16.022;2023-12-20T08:10:19;7.00;99.90
7814;DHT22;3952;48.364;16.022;2023-12-20T08:12:47;7.10;99.90
7814;DHT22;3952;48.364;16.022;2023-12-20T08:15:14;7.10;99.90
7814;DHT22;3952;48.364;16.022;2023-12-20T08:17:41;7.10;99.90
7814;DHT22;3952;48.364;16.022;2023-12-20T08:20:09;7.20;99.90
7814;DHT22;3952;48.364;16.022;2023-12-20T08:22:37;7.20;99.90
7814;DHT22;3952;48.364;16.022;2023-12-20T08:25:06;7.20;99.90
7814;DHT22;3952;48.364;16.022;2023-12-20T08:27:35;7.20;99.90
7814;DHT22;3952;48.364;16.022;2023-12-20T08:30:04;7.30;99.90
7814;DHT22;3952;48.364;16.022;2023-12-20T08:32:32;7.40;99.90
7814;DHT22;3952;48.364;16.022;2023-12-20T08:34:59;7.40;99.90
7814;DHT22;3952;48.364;16.022;2023-12-20T08:37:26;7.50;99.90
7814;DHT22;3952;48.364;16.022;2023-12-20T08:39:54;7.50;99.90
7814;DHT22;3952;48.364;16.022;2023-12-20T08:42:22;7.50;99.90
7814;DHT22;3952;48.364;16.022;2023-12-20T08:44:50;7.60;99.90
7814;DHT22;3952;48.364;16.022;2023-12-20T08:47:17;7.60;99.90
7814;DHT22;3952;48.364;16.022;2023-12-20T08:49:45;7.60;99.90
7814;DHT22;3952;48.364;16.022;2023-12-20T08:52:13;7.60;99.90
7814;DHT22;3952;48.364;16.022;2023-12-20T08:54:40;7.70;99.90
7814;DHT22;3952;48.364;16.022;2023-12-20T08:57:07;7.60;99.90
7814;DHT22;3952;48.364;16.022;2023-12-20T08:59:36;7.70;99.90
7814;DHT22;3952;48.364;16.022;2023-12-20T09:02:04;7.70;99.90
7814;DHT22;3952;48.364;16.022;2023-12-20T09:04:31;7.60;99.90
7814;DHT22;3952;48.364;16.022;2023-12-20T09:07:00;7.50;99.90
7814;DHT22;3952;48.364;16.022;2023-12-20T09:09:28;7.50;99.90
7814;DHT22;3952;48.364;16.022;2023-12-20T09:11:55;7.40;99.90
7814;DHT22;3952;48.364;16.022;2023-12-20T09:14:22;7.30;99.90
7814;DHT22;3952;48.364;16.022;2023-12-20T09:16:51;7.20;99.90
7814;DHT22;3952;48.364;16.022;2023-12-20T09:19:21;7.20;99.90
7814;DHT22;3952;48.364;16.022;2023-12-20T09:21:48;7.10;99.90
7814;DHT22;3952;48.364;16.022;2023-12-20T09:24:16;7.10;99.90
7814;DHT22;3952;48.364;16.022;2023-12-20T09:26:43;7.00;99.90
7814;DHT22;3952;48.364;16.022;2023-12-20T09:29:10;7.00;99.90
7814;DHT22;3952;48.364;16.022;2023-12-20T09:31:41;6.90;99.90
7814;DHT22;3952;48.364;16.022;2023-12-20T09:34:11;6.90;99.90
7814;DHT22;3952;48.364;16.022;2023-12-20T09:36:38;6.90;99.90
7814;DHT22;3952;48.364;16.022;2023-12-20T09:39:12;6.80;99.90
7814;DHT22;3952;48.364;16.022;2023-12-20T09:41:42;6.80;99.90
7814;DHT22;3952;48.364;16.022;2023-12-20T09:44:13;6.70;99.90
7814;DHT22;3952;48.364;16.022;2023-12-20T09:46:43;6.70;99.90
7814;DHT22;3952;48.364;16.022;2023-12-20T09:49:13;6.70;99.90
7814;DHT22;3952;48.364;16.022;2023-12-20T09:51:42;6.70;99.90
7814;DHT22;3952;48.364;16.022;2023-12-20T09:54:10;6.70;99.90
7814;DHT22;3952;48.364;16.022;2023-12-20T09:56:37;6.70;99.90
7814;DHT22;3952;48.364;16.022;2023-12-20T09:59:05;6.80;99.90
7814;DHT22;3952;48.364;16.022;2023-12-20T10:01:34;6.70;99.90
7814;DHT22;3952;48.364;16.022;2023-12-20T10:04:06;6.70;99.90
7814;DHT22;3952;48.364;16.022;2023-12-20T10:06:36;6.80;99.90
7814;DHT22;3952;48.364;16.022;2023-12-20T10:09:03;6.80;99.90
7814;DHT22;3952;48.364;16.022;2023-12-20T10:11:31;6.80;99.90
7814;DHT22;3952;48.364;16.022;2023-12-20T10:13:59;6.80;99.90
7814;DHT22;3952;48.364;16.022;2023-12-20T10:16:28;6.90;99.90
7814;DHT22;3952;48.364;16.022;2023-12-20T10:18:55;6.90;99.90
7814;DHT22;3952;48.364;16.022;2023-12-20T10:21:23;6.90;99.90
7814;DHT22;3952;48.364;16.022;2023-12-20T10:23:53;6.90;99.90
7814;DHT22;3952;48.364;16.022;2023-12-20T10:26:21;6.90;99.90
7814;DHT22;3952;48.364;16.022;2023-12-20T10:28:50;6.80;99.90
7814;DHT22;3952;48.364;16.022;2023-12-20T10:31:29;6.90;99.90
7814;DHT22;3952;48.364;16.022;2023-12-20T10:33:57;6.80;99.90
7814;DHT22;3952;48.364;16.022;2023-12-20T10:36:26;6.80;99.90
7814;DHT22;3952;48.364;16.022;2023-12-20T10:38:56;6.80;99.90
7814;DHT22;3952;48.364;16.022;2023-12-20T10:41:27;6.80;99.90
7814;DHT22;3952;48.364;16.022;2023-12-20T10:43:57;6.80;99.90
7814;DHT22;3952;48.364;16.022;2023-12-20T10:46:26;6.80;99.90
7814;DHT22;3952;48.364;16.022;2023-12-20T10:48:55;6.80;99.90
7814;DHT22;3952;48.364;16.022;2023-12-20T10:51:24;6.80;99.90
7814;DHT22;3952;48.364;16.022;2023-12-20T10:53:52;6.80;99.90
7814;DHT22;3952;48.364;16.022;2023-12-20T10:56:21;6.80;99.90
7814;DHT22;3952;48.364;16.022;2023-12-20T10:58:49;6.80;99.90
7814;DHT22;3952;48.364;16.022;2023-12-20T11:01:18;6.80;99.90
7814;DHT22;3952;48.364;16.022;2023-12-20T11:03:49;6.90;99.90
7814;DHT22;3952;48.364;16.022;2023-12-20T11:06:29;6.90;99.90
7814;DHT22;3952;48.364;16.022;2023-12-20T11:09:06;6.90;99.90
7814;DHT22;3952;48.364;16.022;2023-12-20T11:11:43;6.90;99.90
7814;DHT22;3952;48.364;16.022;2023-12-20T11:14:19;6.90;99.90
7814;DHT22;3952;48.364;16.022;2023-12-20T11:16:47;6.90;99.90
7814;DHT22;3952;48.364;16.022;2023-12-20T11:19:15;6.90;99.90
7814;DHT22;3952;48.364;16.022;2023-12-20T11:21:43;6.90;99.90
7814;DHT22;3952;48.364;16.022;2023-12-20T11:24:13;6.90;99.90
7814;DHT22;3952;48.364;16.022;2023-12-20T11:26:47;6.90;99.90
7814;DHT22;3952;48.364;16.022;2023-12-20T11:29:33;7.00;99.90
7814;DHT22;3952;48.364;16.022;2023-12-20T11:32:02;7.00;99.90
7814;DHT22;3952;48.364;16.022;2023-12-20T11:34:32;7.00;99.90
7814;DHT22;3952;48.364;16.022;2023-12-20T11:37:00;7.00;99.90
7814;DHT22;3952;48.364;16.022;2023-12-20T11:39:31;7.00;99.90
7814;DHT22;3952;48.364;16.022;2023-12-20T11:42:04;7.00;99.90
7814;DHT22;3952;48.364;16.022;2023-12-20T11:44:31;7.00;99.90
7814;DHT22;3952;48.364;16.022;2023-12-20T11:47:00;7.10;99.90
7814;DHT22;3952;48.364;16.022;2023-12-20T11:49:27;7.10;99.90
7814;DHT22;3952;48.364;16.022;2023-12-20T11:51:55;7.20;99.90
7814;DHT22;3952;48.364;16.022;2023-12-20T11:54:22;7.10;99.90
7814;DHT22;3952;48.364;16.022;2023-12-20T11:56:50;7.10;99.90
7814;DHT22;3952;48.364;16.022;2023-12-20T11:59:18;7.20;99.90
7814;DHT22;3952;48.364;16.022;2023-12-20T12:01:48;7.20;99.90
7814;DHT22;3952;48.364;16.022;2023-12-20T12:04:16;7.20;99.90
7814;DHT22;3952;48.364;16.022;2023-12-20T12:06:44;7.30;99.90
7814;DHT22;3952;48.364;16.022;2023-12-20T12:09:12;7.30;99.90
7814;DHT22;3952;48.364;16.022;2023-12-20T12:11:41;7.30;99.90
7814;DHT22;3952;48.364;16.022;2023-12-20T12:14:08;7.30;99.90
7814;DHT22;3952;48.364;16.022;2023-12-20T12:16:37;7.30;99.90
7814;DHT22;3952;48.364;16.022;2023-12-20T12:19:04;7.30;99.90
7814;DHT22;3952;48.364;16.022;2023-12-20T12:21:31;9.00;99.90
7814;DHT22;3952;48.364;16.022;2023-12-20T12:24:07;7.30;99.90
7814;DHT22;3952;48.364;16.022;2023-12-20T12:26:34;7.30;99.90
7814;DHT22;3952;48.364;16.022;2023-12-20T12:29:02;7.30;99.90
7814;DHT22;3952;48.364;16.022;2023-12-20T12:31:30;7.30;99.90
7814;DHT22;3952;48.364;16.022;2023-12-20T12:33:58;7.30;99.90
7814;DHT22;3952;48.364;16.022;2023-12-20T12:36:25;7.30;99.90
7814;DHT22;3952;48.364;16.022;2023-12-20T12:38:53;7.40;99.90
7814;DHT22;3952;48.364;16.022;2023-12-20T12:41:20;7.50;99.90
7814;DHT22;3952;48.364;16.022;2023-12-20T12:43:47;7.50;99.90
7814;DHT22;3952;48.364;16.022;2023-12-20T12:46:14;7.50;99.90
7814;DHT22;3952;48.364;16.022;2023-12-20T12:48:42;7.50;99.90
7814;DHT22;3952;48.364;16.022;2023-12-20T12:51:11;7.50;99.90
7814;DHT22;3952;48.364;16.022;2023-12-20T12:53:39;7.50;99.90
7814;DHT22;3952;48.364;16.022;2023-12-20T12:56:07;7.60;99.90
7814;DHT22;3952;48.364;16.022;2023-12-20T12:58:34;7.50;99.90
7814;DHT22;3952;48.364;16.022;2023-12-20T13:01:02;7.50;99.90
7814;DHT22;3952;48.364;16.022;2023-12-20T13:03:29;7.50;99.90
7814;DHT22;3952;48.364;16.022;2023-12-20T13:05:56;7.50;99.90
7814;DHT22;3952;48.364;16.022;2023-12-20T13:08:25;7.50;99.90
7814;DHT22;3952;48.364;16.022;2023-12-20T13:10:53;7.50;99.90
7814;DHT22;3952;48.364;16.022;2023-12-20T13:13:21;7.50;99.90
7814;DHT22;3952;48.364;16.022;2023-12-20T13:15:49;5.80;99.90
7814;DHT22;3952;48.364;16.022;2023-12-20T13:18:20;7.40;99.90
7814;DHT22;3952;48.364;16.022;2023-12-20T13:20:48;7.40;99.90
7814;DHT22;3952;48.364;16.022;2023-12-20T13:23:15;7.40;99.90
7814;DHT22;3952;48.364;16.022;2023-12-20T13:25:45;7.40;99.90
7814;DHT22;3952;48.364;16.022;2023-12-20T13:28:13;7.40;99.90
7814;DHT22;3952;48.364;16.022;2023-12-20T13:30:40;7.50;99.90
7814;DHT22;3952;48.364;16.022;2023-12-20T13:33:07;7.50;99.90
7814;DHT22;3952;48.364;16.022;2023-12-20T13:35:35;7.50;99.90
7814;DHT22;3952;48.364;16.022;2023-12-20T13:38:03;7.40;99.90
7814;DHT22;3952;48.364;16.022;2023-12-20T13:40:30;7.40;99.90
7814;DHT22;3952;48.364;16.022;2023-12-20T13:42:59;7.40;99.90
7814;DHT22;3952;48.364;16.022;2023-12-20T13:45:26;7.40;99.90
7814;DHT22;3952;48.364;16.022;2023-12-20T13:47:53;7.40;99.90
7814;DHT22;3952;48.364;16.022;2023-12-20T13:50:21;7.40;99.90
7814;DHT22;3952;48.364;16.022;2023-12-20T13:52:48;7.40;99.90
7814;DHT22;3952;48.364;16.022;2023-12-20T13:55:15;7.40;99.90
7814;DHT22;3952;48.364;16.022;2023-12-20T13:57:42;7.50;99.90
7814;DHT22;3952;48.364;16.022;2023-12-20T14:00:13;7.50;99.90
7814;DHT22;3952;48.364;16.022;2023-12-20T14:02:41;7.50;99.90
7814;DHT22;3952;48.364;16.022;2023-12-20T14:05:08;7.40;99.90
7814;DHT22;3952;48.364;16.022;2023-12-20T14:07:36;7.40;99.90
7814;DHT22;3952;48.364;16.022;2023-12-20T14:10:04;7.40;99.90
7814;DHT22;3952;48.364;16.022;2023-12-20T14:12:32;7.40;99.90
7814;DHT22;3952;48.364;16.022;2023-12-20T14:15:02;7.40;99.90
7814;DHT22;3952;48.364;16.022;2023-12-20T14:17:31;7.30;99.90
7814;DHT22;3952;48.364;16.022;2023-12-20T14:19:58;7.30;99.90
7814;DHT22;3952;48.364;16.022;2023-12-20T14:22:25;7.30;99.90
7814;DHT22;3952;48.364;16.022;2023-12-20T14:24:55;7.20;99.90
7814;DHT22;3952;48.364;16.022;2023-12-20T14:27:23;7.20;99.90
7814;DHT22;3952;48.364;16.022;2023-12-20T14:29:50;7.20;99.90
7814;DHT22;3952;48.364;16.022;2023-12-20T14:32:17;7.20;99.90
7814;DHT22;3952;48.364;16.022;2023-12-20T14:34:46;7.20;99.90
7814;DHT22;3952;48.364;16.022;2023-12-20T14:37:13;7.20;99.90
7814;DHT22;3952;48.364;16.022;2023-12-20T14:39:42;7.10;99.90
7814;DHT22;3952;48.364;16.022;2023-12-20T14:42:09;7.00;99.90
7814;DHT22;3952;48.364;16.022;2023-12-20T14:44:39;7.00;99.90
7814;DHT22;3952;48.364;16.022;2023-12-20T14:47:07;7.00;99.90
7814;DHT22;3952;48.364;16.022;2023-12-20T14:49:34;6.90;99.90
7814;DHT22;3952;48.364;16.022;2023-12-20T14:52:04;7.00;99.90
7814;DHT22;3952;48.364;16.022;2023-12-20T14:54:32;6.90;99.90
7814;DHT22;3952;48.364;16.022;2023-12-20T14:56:59;6.90;99.90
7814;DHT22;3952;48.364;16.022;2023-12-20T14:59:26;6.80;99.90
7814;DHT22;3952;48.364;16.022;2023-12-20T15:01:54;6.70;99.90
7814;DHT22;3952;48.364;16.022;2023-12-20T15:04:21;6.70;99.90
7814;DHT22;3952;48.364;16.022;2023-12-20T15:06:54;6.70;99.90
7814;DHT22;3952;48.364;16.022;2023-12-20T15:09:23;6.60;99.90
7814;DHT22;3952;48.364;16.022;2023-12-20T15:11:50;6.60;99.90
7814;DHT22;3952;48.364;16.022;2023-12-20T15:14:18;6.60;99.90
7814;DHT22;3952;48.364;16.022;2023-12-20T15:16:46;6.60;99.90
7814;DHT22;3952;48.364;16.022;2023-12-20T15:19:13;6.60;99.90
7814;DHT22;3952;48.364;16.022;2023-12-20T15:21:41;6.70;99.90
7814;DHT22;3952;48.364;16.022;2023-12-20T15:24:09;6.70;99.90
7814;DHT22;3952;48.364;16.022;2023-12-20T15:26:42;6.70;99.90
7814;DHT22;3952;48.364;16.022;2023-12-20T15:29:10;6.70;99.90
7814;DHT22;3952;48.364;16.022;2023-12-20T15:31:42;6.70;99.90
7814;DHT22;3952;48.364;16.022;2023-12-20T15:34:10;6.80;99.90
7814;DHT22;3952;48.364;16.022;2023-12-20T15:36:37;6.90;99.90
7814;DHT22;3952;48.364;16.022;2023-12-20T15:39:05;6.90;99.90
7814;DHT22;3952;48.364;16.022;2023-12-20T15:41:34;6.90;99.90
7814;DHT22;3952;48.364;16.022;2023-12-20T15:44:03;6.90;99.90
7814;DHT22;3952;48.364;16.022;2023-12-20T15:46:30;6.90;99.90
7814;DHT22;3952;48.364;16.022;2023-12-20T15:48:58;7.00;99.90
7814;DHT22;3952;48.364;16.022;2023-12-20T15:51:25;7.00;99.90
7814;DHT22;3952;48.364;16.022;2023-12-20T15:53:52;7.00;99.90
7814;DHT22;3952;48.364;16.022;2023-12-20T15:56:20;7.00;99.90
7814;DHT22;3952;48.364;16.022;2023-12-20T15:58:47;7.00;99.90
7814;DHT22;3952;48.364;16.022;2023-12-20T16:01:18;7.00;99.90
7814;DHT22;3952;48.364;16.022;2023-12-20T16:03:45;7.00;99.90
7814;DHT22;3952;48.364;16.022;2023-12-20T16:06:13;6.90;99.90